sensor_id;sensor_type;location;lat;lon;timestamp;temperature;humidity
10083;DHT22;5080;48.528;8.078;2023-02-18T00:00:29;13.40;99.90
10083;DHT22;5080;48.528;8.078;2023-02-18T00:02:56;13.40;99.90
10083;DHT22;5080;48.528;8.078;2023-02-18T00:05:23;13.40;99.90
10083;DHT22;5080;48.528;8.078;2023-02-18T00:07:50;13.40;99.90
10083;DHT22;5080;48.528;8.078;2023-02-18T00:10:19;13.40;99.90
10083;DHT22;5080;48.528;8.078;2023-02-18T00:12:47;13.50;99.90
10083;DHT22;5080;48.528;8.078;2023-02-18T00:15:14;13.40;99.90
10083;DHT22;5080;48.528;8.078;2023-02-18T00:17:40;13.40;99.90
10083;DHT22;5080;48.528;8.078;2023-02-18T00:20:08;13.40;99.90
10083;DHT22;5080;48.528;8.078;2023-02-18T00:22:35;13.40;99.90
10083;DHT22;5080;48.528;8.078;2023-02-18T00:25:01;13.30;99.90
10083;DHT22;5080;48.528;8.078;2023-02-18T00:27:28;13.30;99.90
10083;DHT22;5080;48.528;8.078;2023-02-18T00:29:57;13.40;99.90
10083;DHT22;5080;48.528;8.078;2023-02-18T00:32:24;13.40;99.90
10083;DHT22;5080;48.528;8.078;2023-02-18T00:34:50;13.40;99.90
10083;DHT22;5080;48.528;8.078;2023-02-18T00:37:17;13.40;99.90
10083;DHT22;5080;48.528;8.078;2023-02-18T00:39:44;13.40;99.90
10083;DHT22;5080;48.528;8.078;2023-02-18T00:42:11;13.30;99.90
10083;DHT22;5080;48.528;8.078;2023-02-18T00:44:40;13.40;99.90
10083;DHT22;5080;48.528;8.078;2023-02-18T00:47:09;13.40;99.90
10083;DHT22;5080;48.528;8.078;2023-02-18T00:49:36;13.40;99.90
10083;DHT22;5080;48.528;8.078;2023-02-18T00:52:03;13.40;99.90
10083;DHT22;5080;48.528;8.078;2023-02-18T00:54:30;13.40;99.90
10083;DHT22;5080;48.528;8.078;2023-02-18T00:56:57;13.40;99.90
10083;DHT22;5080;48.528;8.078;2023-02-18T00:59:24;13.30;99.90
10083;DHT22;5080;48.528;8.078;2023-02-18T01:01:51;13.40;99.90
10083;DHT22;5080;48.528;8.078;2023-02-18T01:04:19;13.40;99.90
10083;DHT22;5080;48.528;8.078;2023-02-18T01:06:46;13.40;99.90
10083;DHT22;5080;48.528;8.078;2023-02-18T01:09:13;13.40;99.90
10083;DHT22;5080;48.528;8.078;2023-02-18T01:11:40;13.40;99.90
10083;DHT22;5080;48.528;8.078;2023-02-18T01:14:07;13.40;99.90
10083;DHT22;5080;48.528;8.078;2023-02-18T01:16:34;13.40;99.90
10083;DHT22;5080;48.528;8.078;2023-02-18T01:19:01;13.40;99.90
10083;DHT22;5080;48.528;8.078;2023-02-18T01:21:29;13.40;99.90
10083;DHT22;5080;48.528;8.078;2023-02-18T01:23:56;13.40;99.90
10083;DHT22;5080;48.528;8.078;2023-02-18T01:26:23;13.40;99.90
10083;DHT22;5080;48.528;8.078;2023-02-18T01:28:50;13.40;99.90
10083;DHT22;5080;48.528;8.078;2023-02-18T01:31:17;13.40;99.90
10083;DHT22;5080;48.528;8.078;2023-02-18T01:33:44;13.40;99.90
10083;DHT22;5080;48.528;8.078;2023-02-18T01:36:11;13.40;99.90
10083;DHT22;5080;48.528;8.078;2023-02-18T01:38:40;13.40;99.90
10083;DHT22;5080;48.528;8.078;2023-02-18T01:41:07;13.40;99.90
10083;DHT22;5080;48.528;8.078;2023-02-18T01:43:35;13.40;99.90
10083;DHT22;5080;48.528;8.078;2023-02-18T01:46:16;13.30;99.90
10083;DHT22;5080;48.528;8.078;2023-02-18T01:48:47;13.40;99.90
10083;DHT22;5080;48.528;8.078;2023-02-18T01:51:18;13.30;99.90
10083;DHT22;5080;48.528;8.078;2023-02-18T01:53:51;13.30;99.90
10083;DHT22;5080;48.528;8.078;2023-02-18T01:56:23;13.30;99.90
10083;DHT22;5080;48.528;8.078;2023-02-18T01:58:52;13.20;99.90
10083;DHT22;5080;48.528;8.078;2023-02-18T02:01:20;13.30;99.90
10083;DHT22;5080;48.528;8.078;2023-02-18T02:03:47;13.30;99.90
10083;DHT22;5080;48.528;8.078;2023-02-18T02:06:16;13.30;99.90
10083;DHT22;5080;48.528;8.078;2023-02-18T02:08:44;13.30;99.90
10083;DHT22;5080;48.528;8.078;2023-02-18T02:11:22;13.30;99.90
10083;DHT22;5080;48.528;8.078;2023-02-18T02:14:01;13.30;99.90
10083;DHT22;5080;48.528;8.078;2023-02-18T02:16:37;13.30;99.90
10083;DHT22;5080;48.528;8.078;2023-02-18T02:19:26;13.30;99.90
10083;DHT22;5080;48.528;8.078;2023-02-18T02:24:57;13.30;99.90
10083;DHT22;5080;48.528;8.078;2023-02-18T02:27:45;13.30;99.90
10083;DHT22;5080;48.528;8.078;2023-02-18T02:30:36;13.20;99.90
10083;DHT22;5080;48.528;8.078;2023-02-18T02:33:50;13.30;99.90
10083;DHT22;5080;48.528;8.078;2023-02-18T02:36:22;13.20;99.90
10083;DHT22;5080;48.528;8.078;2023-02-18T02:38:55;13.40;99.90
10083;DHT22;5080;48.528;8.078;2023-02-18T02:41:33;13.30;99.90
10083;DHT22;5080;48.528;8.078;2023-02-18T02:44:08;13.20;99.90
10083;DHT22;5080;48.528;8.078;2023-02-18T02:46:39;13.20;99.90
10083;DHT22;5080;48.528;8.078;2023-02-18T02:49:14;13.30;99.90
10083;DHT22;5080;48.528;8.078;2023-02-18T02:51:49;13.30;99.90
10083;DHT22;5080;48.528;8.078;2023-02-18T02:54:20;13.20;99.90
10083;DHT22;5080;48.528;8.078;2023-02-18T02:56:48;13.30;99.90
10083;DHT22;5080;48.528;8.078;2023-02-18T02:59:18;13.30;99.90
10083;DHT22;5080;48.528;8.078;2023-02-18T03:01:59;13.30;99.90
10083;DHT22;5080;48.528;8.078;2023-02-18T03:04:48;13.30;99.90
10083;DHT22;5080;48.528;8.078;2023-02-18T03:10:29;13.30;99.90
10083;DHT22;5080;48.528;8.078;2023-02-18T03:13:06;13.30;99.90
10083;DHT22;5080;48.528;8.078;2023-02-18T03:15:38;13.30;99.90
10083;DHT22;5080;48.528;8.078;2023-02-18T03:18:15;13.30;99.90
10083;DHT22;5080;48.528;8.078;2023-02-18T03:20:48;13.30;99.90
10083;DHT22;5080;48.528;8.078;2023-02-18T03:23:22;13.20;99.90
10083;DHT22;5080;48.528;8.078;2023-02-18T03:25:52;13.20;99.90
10083;DHT22;5080;48.528;8.078;2023-02-18T03:28:21;13.20;99.90
10083;DHT22;5080;48.528;8.078;2023-02-18T03:30:52;13.20;99.90
10083;DHT22;5080;48.528;8.078;2023-02-18T03:33:24;13.20;99.90
10083;DHT22;5080;48.528;8.078;2023-02-18T03:35:53;13.20;99.90
10083;DHT22;5080;48.528;8.078;2023-02-18T03:38:25;13.10;99.90
10083;DHT22;5080;48.528;8.078;2023-02-18T03:40:54;13.20;99.90
10083;DHT22;5080;48.528;8.078;2023-02-18T03:43:22;13.20;99.90
10083;DHT22;5080;48.528;8.078;2023-02-18T03:45:49;13.10;99.90
10083;DHT22;5080;48.528;8.078;2023-02-18T03:48:16;13.10;99.90
10083;DHT22;5080;48.528;8.078;2023-02-18T03:50:43;13.10;99.90
10083;DHT22;5080;48.528;8.078;2023-02-18T03:53:10;13.20;99.90
10083;DHT22;5080;48.528;8.078;2023-02-18T03:55:38;13.20;99.90
10083;DHT22;5080;48.528;8.078;2023-02-18T03:58:05;13.20;99.90
10083;DHT22;5080;48.528;8.078;2023-02-18T04:00:32;13.20;99.90
10083;DHT22;5080;48.528;8.078;2023-02-18T04:02:58;13.10;99.90
10083;DHT22;5080;48.528;8.078;2023-02-18T04:05:25;13.10;99.90
10083;DHT22;5080;48.528;8.078;2023-02-18T04:07:52;13.10;99.90
10083;DHT22;5080;48.528;8.078;2023-02-18T04:10:19;13.10;99.90
10083;DHT22;5080;48.528;8.078;2023-02-18T04:12:48;13.10;99.90
10083;DHT22;5080;48.528;8.078;2023-02-18T04:15:15;13.10;99.90
10083;DHT22;5080;48.528;8.078;2023-02-18T04:17:42;13.10;99.90
10083;DHT22;5080;48.528;8.078;2023-02-18T04:20:10;13.20;99.90
10083;DHT22;5080;48.528;8.078;2023-02-18T04:22:37;13.20;99.90
10083;DHT22;5080;48.528;8.078;2023-02-18T04:25:04;13.20;99.90
10083;DHT22;5080;48.528;8.078;2023-02-18T04:27:31;13.20;99.90
10083;DHT22;5080;48.528;8.078;2023-02-18T04:29:59;13.30;99.90
10083;DHT22;5080;48.528;8.078;2023-02-18T04:32:26;13.30;99.90
10083;DHT22;5080;48.528;8.078;2023-02-18T04:34:53;13.30;99.90
10083;DHT22;5080;48.528;8.078;2023-02-18T04:37:20;13.30;99.90
10083;DHT22;5080;48.528;8.078;2023-02-18T04:39:47;13.30;99.90
10083;DHT22;5080;48.528;8.078;2023-02-18T04:42:14;13.30;99.90
10083;DHT22;5080;48.528;8.078;2023-02-18T04:44:41;13.40;99.90
10083;DHT22;5080;48.528;8.078;2023-02-18T04:47:09;13.40;99.90
10083;DHT22;5080;48.528;8.078;2023-02-18T04:49:36;13.40;99.90
10083;DHT22;5080;48.528;8.078;2023-02-18T04:52:03;13.40;99.90
10083;DHT22;5080;48.528;8.078;2023-02-18T04:54:30;13.40;99.90
10083;DHT22;5080;48.528;8.078;2023-02-18T04:56:57;13.40;99.90
10083;DHT22;5080;48.528;8.078;2023-02-18T04:59:24;13.40;99.90
10083;DHT22;5080;48.528;8.078;2023-02-18T05:01:51;13.40;99.90
10083;DHT22;5080;48.528;8.078;2023-02-18T05:04:19;13.40;99.90
10083;DHT22;5080;48.528;8.078;2023-02-18T05:06:46;13.30;99.90
10083;DHT22;5080;48.528;8.078;2023-02-18T05:09:13;13.30;99.90
10083;DHT22;5080;48.528;8.078;2023-02-18T05:11:40;13.30;99.90
10083;DHT22;5080;48.528;8.078;2023-02-18T05:14:07;13.30;99.90
10083;DHT22;5080;48.528;8.078;2023-02-18T05:16:34;13.30;99.90
10083;DHT22;5080;48.528;8.078;2023-02-18T05:19:01;13.30;99.90
10083;DHT22;5080;48.528;8.078;2023-02-18T05:21:29;13.20;99.90
10083;DHT22;5080;48.528;8.078;2023-02-18T05:23:56;13.30;99.90
10083;DHT22;5080;48.528;8.078;2023-02-18T05:26:23;13.30;99.90
10083;DHT22;5080;48.528;8.078;2023-02-18T05:28:50;13.30;99.90
10083;DHT22;5080;48.528;8.078;2023-02-18T05:31:17;13.30;99.90
10083;DHT22;5080;48.528;8.078;2023-02-18T05:33:43;13.30;99.90
10083;DHT22;5080;48.528;8.078;2023-02-18T05:36:10;13.30;99.90
10083;DHT22;5080;48.528;8.078;2023-02-18T05:38:38;13.30;99.90
10083;DHT22;5080;48.528;8.078;2023-02-18T05:41:05;13.30;99.90
10083;DHT22;5080;48.528;8.078;2023-02-18T05:43:32;13.30;99.90
10083;DHT22;5080;48.528;8.078;2023-02-18T05:46:20;13.40;99.90
10083;DHT22;5080;48.528;8.078;2023-02-18T05:48:47;13.40;99.90
10083;DHT22;5080;48.528;8.078;2023-02-18T05:51:14;13.40;99.90
10083;DHT22;5080;48.528;8.078;2023-02-18T05:53:42;13.40;99.90
10083;DHT22;5080;48.528;8.078;2023-02-18T05:56:09;13.30;99.90
10083;DHT22;5080;48.528;8.078;2023-02-18T05:58:35;13.40;99.90
10083;DHT22;5080;48.528;8.078;2023-02-18T06:01:03;13.40;99.90
10083;DHT22;5080;48.528;8.078;2023-02-18T06:03:29;13.30;99.90
10083;DHT22;5080;48.528;8.078;2023-02-18T06:05:56;13.30;99.90
10083;DHT22;5080;48.528;8.078;2023-02-18T06:08:23;13.30;99.90
10083;DHT22;5080;48.528;8.078;2023-02-18T06:10:51;13.30;99.90
10083;DHT22;5080;48.528;8.078;2023-02-18T06:13:18;13.30;99.90
10083;DHT22;5080;48.528;8.078;2023-02-18T06:15:45;13.30;99.90
10083;DHT22;5080;48.528;8.078;2023-02-18T06:18:12;13.40;99.90
10083;DHT22;5080;48.528;8.078;2023-02-18T06:20:39;13.40;99.90
10083;DHT22;5080;48.528;8.078;2023-02-18T06:23:06;13.40;99.90
10083;DHT22;5080;48.528;8.078;2023-02-18T06:25:33;13.40;99.90
10083;DHT22;5080;48.528;8.078;2023-02-18T06:28:01;13.40;99.90
10083;DHT22;5080;48.528;8.078;2023-02-18T06:30:28;13.50;99.90
10083;DHT22;5080;48.528;8.078;2023-02-18T06:32:55;13.50;99.90
10083;DHT22;5080;48.528;8.078;2023-02-18T06:35:21;13.60;99.90
10083;DHT22;5080;48.528;8.078;2023-02-18T06:37:48;13.60;99.90
10083;DHT22;5080;48.528;8.078;2023-02-18T06:40:15;13.60;99.90
10083;DHT22;5080;48.528;8.078;2023-02-18T06:42:43;13.60;99.90
10083;DHT22;5080;48.528;8.078;2023-02-18T06:45:11;13.70;99.90
10083;DHT22;5080;48.528;8.078;2023-02-18T06:47:38;13.60;99.90
10083;DHT22;5080;48.528;8.078;2023-02-18T06:50:06;13.70;99.90
10083;DHT22;5080;48.528;8.078;2023-02-18T06:52:33;13.70;99.90
10083;DHT22;5080;48.528;8.078;2023-02-18T06:54:59;13.60;99.90
10083;DHT22;5080;48.528;8.078;2023-02-18T06:57:26;13.70;99.90
10083;DHT22;5080;48.528;8.078;2023-02-18T06:59:53;13.60;99.90
10083;DHT22;5080;48.528;8.078;2023-02-18T07:02:21;13.60;99.90
10083;DHT22;5080;48.528;8.078;2023-02-18T07:04:48;13.60;99.90
10083;DHT22;5080;48.528;8.078;2023-02-18T07:07:15;13.60;99.90
10083;DHT22;5080;48.528;8.078;2023-02-18T07:09:42;13.60;99.90
10083;DHT22;5080;48.528;8.078;2023-02-18T07:12:09;13.60;99.90
10083;DHT22;5080;48.528;8.078;2023-02-18T07:14:36;13.70;99.90
10083;DHT22;5080;48.528;8.078;2023-02-18T07:17:03;13.70;99.90
10083;DHT22;5080;48.528;8.078;2023-02-18T07:19:31;13.70;99.90
10083;DHT22;5080;48.528;8.078;2023-02-18T07:21:58;13.70;99.90
10083;DHT22;5080;48.528;8.078;2023-02-18T07:24:25;13.80;99.90
10083;DHT22;5080;48.528;8.078;2023-02-18T07:26:52;13.80;99.90
10083;DHT22;5080;48.528;8.078;2023-02-18T07:29:19;13.80;99.90
10083;DHT22;5080;48.528;8.078;2023-02-18T07:31:46;13.80;99.90
10083;DHT22;5080;48.528;8.078;2023-02-18T07:34:13;13.90;99.90
10083;DHT22;5080;48.528;8.078;2023-02-18T07:36:41;14.00;99.90
10083;DHT22;5080;48.528;8.078;2023-02-18T07:39:08;14.00;99.90
10083;DHT22;5080;48.528;8.078;2023-02-18T07:41:34;13.90;99.90
10083;DHT22;5080;48.528;8.078;2023-02-18T07:44:01;13.90;99.90
10083;DHT22;5080;48.528;8.078;2023-02-18T07:46:28;14.00;99.90
10083;DHT22;5080;48.528;8.078;2023-02-18T07:48:58;14.00;99.90
10083;DHT22;5080;48.528;8.078;2023-02-18T07:51:25;14.00;99.90
10083;DHT22;5080;48.528;8.078;2023-02-18T07:53:53;14.00;99.90
10083;DHT22;5080;48.528;8.078;2023-02-18T07:56:20;14.00;99.90
10083;DHT22;5080;48.528;8.078;2023-02-18T07:58:47;14.00;99.90
10083;DHT22;5080;48.528;8.078;2023-02-18T08:01:15;14.10;99.90
10083;DHT22;5080;48.528;8.078;2023-02-18T08:03:42;14.10;99.90
10083;DHT22;5080;48.528;8.078;2023-02-18T08:06:19;14.10;99.90
10083;DHT22;5080;48.528;8.078;2023-02-18T08:08:53;14.10;99.90
10083;DHT22;5080;48.528;8.078;2023-02-18T08:11:20;14.10;99.90
10083;DHT22;5080;48.528;8.078;2023-02-18T08:13:48;14.10;99.90
10083;DHT22;5080;48.528;8.078;2023-02-18T08:16:15;14.10;99.90
10083;DHT22;5080;48.528;8.078;2023-02-18T08:18:42;14.10;99.90
10083;DHT22;5080;48.528;8.078;2023-02-18T08:21:09;14.10;99.90
10083;DHT22;5080;48.528;8.078;2023-02-18T08:23:36;14.10;99.90
10083;DHT22;5080;48.528;8.078;2023-02-18T08:26:04;14.10;99.90
10083;DHT22;5080;48.528;8.078;2023-02-18T08:28:31;14.10;99.90
10083;DHT22;5080;48.528;8.078;2023-02-18T08:30:58;14.10;99.90
10083;DHT22;5080;48.528;8.078;2023-02-18T08:33:25;14.20;99.90
10083;DHT22;5080;48.528;8.078;2023-02-18T08:35:53;14.20;99.90
10083;DHT22;5080;48.528;8.078;2023-02-18T08:38:21;14.20;99.90
10083;DHT22;5080;48.528;8.078;2023-02-18T08:40:49;14.20;99.90
10083;DHT22;5080;48.528;8.078;2023-02-18T08:43:17;14.20;99.90
10083;DHT22;5080;48.528;8.078;2023-02-18T08:45:44;14.20;99.90
10083;DHT22;5080;48.528;8.078;2023-02-18T08:48:12;14.20;99.90
10083;DHT22;5080;48.528;8.078;2023-02-18T08:50:40;14.20;99.90
10083;DHT22;5080;48.528;8.078;2023-02-18T08:53:07;14.20;99.90
10083;DHT22;5080;48.528;8.078;2023-02-18T08:55:35;14.20;99.90
10083;DHT22;5080;48.528;8.078;2023-02-18T08:58:03;14.30;99.90
10083;DHT22;5080;48.528;8.078;2023-02-18T09:00:32;14.30;99.90
10083;DHT22;5080;48.528;8.078;2023-02-18T09:02:59;14.20;99.90
10083;DHT22;5080;48.528;8.078;2023-02-18T09:05:26;14.30;99.90
10083;DHT22;5080;48.528;8.078;2023-02-18T09:07:53;14.20;99.90
10083;DHT22;5080;48.528;8.078;2023-02-18T09:10:20;14.30;99.90
10083;DHT22;5080;48.528;8.078;2023-02-18T09:12:47;14.30;99.90
10083;DHT22;5080;48.528;8.078;2023-02-18T09:15:14;14.30;99.90
10083;DHT22;5080;48.528;8.078;2023-02-18T09:17:42;14.20;99.90
10083;DHT22;5080;48.528;8.078;2023-02-18T09:20:09;14.30;99.90
10083;DHT22;5080;48.528;8.078;2023-02-18T09:22:36;14.30;99.90
10083;DHT22;5080;48.528;8.078;2023-02-18T09:25:04;14.30;99.90
10083;DHT22;5080;48.528;8.078;2023-02-18T09:27:31;14.30;99.90
10083;DHT22;5080;48.528;8.078;2023-02-18T09:29:58;14.30;99.90
10083;DHT22;5080;48.528;8.078;2023-02-18T09:32:25;14.30;99.90
10083;DHT22;5080;48.528;8.078;2023-02-18T09:34:53;14.30;99.90
10083;DHT22;5080;48.528;8.078;2023-02-18T09:37:20;14.40;99.90
10083;DHT22;5080;48.528;8.078;2023-02-18T09:39:47;14.40;99.90
10083;DHT22;5080;48.528;8.078;2023-02-18T09:42:17;14.50;99.90
10083;DHT22;5080;48.528;8.078;2023-02-18T09:44:50;14.50;99.90
10083;DHT22;5080;48.528;8.078;2023-02-18T09:47:20;14.50;99.90
10083;DHT22;5080;48.528;8.078;2023-02-18T09:49:55;14.50;99.90
10083;DHT22;5080;48.528;8.078;2023-02-18T09:52:26;14.50;99.90
10083;DHT22;5080;48.528;8.078;2023-02-18T09:54:54;14.60;99.90
10083;DHT22;5080;48.528;8.078;2023-02-18T09:57:24;14.60;99.90
10083;DHT22;5080;48.528;8.078;2023-02-18T10:00:02;14.60;99.90
10083;DHT22;5080;48.528;8.078;2023-02-18T10:02:30;14.70;99.90
10083;DHT22;5080;48.528;8.078;2023-02-18T10:04:58;14.70;99.90
10083;DHT22;5080;48.528;8.078;2023-02-18T10:07:28;14.60;99.90
10083;DHT22;5080;48.528;8.078;2023-02-18T10:09:56;14.60;99.90
10083;DHT22;5080;48.528;8.078;2023-02-18T10:12:25;14.70;99.90
10083;DHT22;5080;48.528;8.078;2023-02-18T10:14:54;14.70;99.90
10083;DHT22;5080;48.528;8.078;2023-02-18T10:17:23;14.70;99.90
10083;DHT22;5080;48.528;8.078;2023-02-18T10:19:52;14.70;99.90
10083;DHT22;5080;48.528;8.078;2023-02-18T10:22:23;14.70;99.90
10083;DHT22;5080;48.528;8.078;2023-02-18T10:24:52;14.70;99.90
10083;DHT22;5080;48.528;8.078;2023-02-18T10:27:24;14.80;99.90
10083;DHT22;5080;48.528;8.078;2023-02-18T10:29:51;14.80;99.90
10083;DHT22;5080;48.528;8.078;2023-02-18T10:32:22;14.80;99.90
10083;DHT22;5080;48.528;8.078;2023-02-18T10:34:53;14.80;99.90
10083;DHT22;5080;48.528;8.078;2023-02-18T10:37:52;14.90;99.90
10083;DHT22;5080;48.528;8.078;2023-02-18T10:40:22;14.90;99.90
10083;DHT22;5080;48.528;8.078;2023-02-18T10:43:02;14.90;99.90
10083;DHT22;5080;48.528;8.078;2023-02-18T10:45:40;14.90;99.90
10083;DHT22;5080;48.528;8.078;2023-02-18T10:48:25;14.90;99.90
10083;DHT22;5080;48.528;8.078;2023-02-18T10:50:55;15.00;99.90
10083;DHT22;5080;48.528;8.078;2023-02-18T10:53:30;15.00;99.90
10083;DHT22;5080;48.528;8.078;2023-02-18T10:55:59;15.10;99.90
10083;DHT22;5080;48.528;8.078;2023-02-18T10:58:30;15.20;99.90
10083;DHT22;5080;48.528;8.078;2023-02-18T11:00:58;15.30;99.90
10083;DHT22;5080;48.528;8.078;2023-02-18T11:03:38;15.30;99.90
10083;DHT22;5080;48.528;8.078;2023-02-18T11:06:16;15.40;99.90
10083;DHT22;5080;48.528;8.078;2023-02-18T11:08:47;15.30;99.90
10083;DHT22;5080;48.528;8.078;2023-02-18T11:11:19;15.30;99.90
10083;DHT22;5080;48.528;8.078;2023-02-18T11:13:52;15.40;99.90
10083;DHT22;5080;48.528;8.078;2023-02-18T11:16:21;15.40;99.90
10083;DHT22;5080;48.528;8.078;2023-02-18T11:18:49;15.50;99.90
10083;DHT22;5080;48.528;8.078;2023-02-18T11:21:28;15.50;99.90
10083;DHT22;5080;48.528;8.078;2023-02-18T11:23:57;15.50;99.90
10083;DHT22;5080;48.528;8.078;2023-02-18T11:26:33;15.50;99.90
10083;DHT22;5080;48.528;8.078;2023-02-18T11:29:04;15.50;99.90
10083;DHT22;5080;48.528;8.078;2023-02-18T11:31:39;15.60;99.90
10083;DHT22;5080;48.528;8.078;2023-02-18T11:34:14;15.60;99.90
10083;DHT22;5080;48.528;8.078;2023-02-18T11:36:42;15.60;99.90
10083;DHT22;5080;48.528;8.078;2023-02-18T11:39:18;15.60;99.90
10083;DHT22;5080;48.528;8.078;2023-02-18T11:41:48;15.60;99.90
10083;DHT22;5080;48.528;8.078;2023-02-18T11:44:21;15.50;99.90
10083;DHT22;5080;48.528;8.078;2023-02-18T11:46:58;15.60;99.90
10083;DHT22;5080;48.528;8.078;2023-02-18T11:49:25;15.50;99.90
10083;DHT22;5080;48.528;8.078;2023-02-18T11:51:54;15.60;99.90
10083;DHT22;5080;48.528;8.078;2023-02-18T11:54:30;15.60;99.90
10083;DHT22;5080;48.528;8.078;2023-02-18T11:56:59;15.60;99.90
10083;DHT22;5080;48.528;8.078;2023-02-18T11:59:31;15.60;99.90
10083;DHT22;5080;48.528;8.078;2023-02-18T12:02:02;15.70;99.90
10083;DHT22;5080;48.528;8.078;2023-02-18T12:04:37;15.80;99.90
10083;DHT22;5080;48.528;8.078;2023-02-18T12:07:14;15.90;99.90
10083;DHT22;5080;48.528;8.078;2023-02-18T12:09:48;15.90;99.90
10083;DHT22;5080;48.528;8.078;2023-02-18T12:12:18;15.90;99.90
10083;DHT22;5080;48.528;8.078;2023-02-18T12:14:50;16.00;99.90
10083;DHT22;5080;48.528;8.078;2023-02-18T12:17:40;16.10;99.90
10083;DHT22;5080;48.528;8.078;2023-02-18T12:20:22;16.10;99.90
10083;DHT22;5080;48.528;8.078;2023-02-18T12:22:57;16.10;99.90
10083;DHT22;5080;48.528;8.078;2023-02-18T12:25:36;16.10;99.90
10083;DHT22;5080;48.528;8.078;2023-02-18T12:28:23;16.00;99.90
10083;DHT22;5080;48.528;8.078;2023-02-18T12:31:11;16.00;99.90
10083;DHT22;5080;48.528;8.078;2023-02-18T12:33:47;16.00;99.90
10083;DHT22;5080;48.528;8.078;2023-02-18T12:36:29;16.00;99.90
10083;DHT22;5080;48.528;8.078;2023-02-18T12:39:06;15.90;99.90
10083;DHT22;5080;48.528;8.078;2023-02-18T12:41:58;15.90;99.90
10083;DHT22;5080;48.528;8.078;2023-02-18T12:44:36;16.00;99.90
10083;DHT22;5080;48.528;8.078;2023-02-18T12:47:36;16.10;99.90
10083;DHT22;5080;48.528;8.078;2023-02-18T12:50:31;16.00;99.90
10083;DHT22;5080;48.528;8.078;2023-02-18T12:53:29;16.00;99.90
10083;DHT22;5080;48.528;8.078;2023-02-18T12:56:09;16.00;99.90
10083;DHT22;5080;48.528;8.078;2023-02-18T12:58:49;16.00;99.90
10083;DHT22;5080;48.528;8.078;2023-02-18T13:01:32;15.90;99.90
10083;DHT22;5080;48.528;8.078;2023-02-18T13:04:18;15.90;99.90
10083;DHT22;5080;48.528;8.078;2023-02-18T13:07:06;15.90;99.90
10083;DHT22;5080;48.528;8.078;2023-02-18T13:09:46;15.90;99.90
10083;DHT22;5080;48.528;8.078;2023-02-18T13:12:18;15.90;99.90
10083;DHT22;5080;48.528;8.078;2023-02-18T13:14:52;15.90;99.90
10083;DHT22;5080;48.528;8.078;2023-02-18T13:17:24;15.90;99.90
10083;DHT22;5080;48.528;8.078;2023-02-18T13:19:54;15.90;99.90
10083;DHT22;5080;48.528;8.078;2023-02-18T13:22:24;15.90;99.90
10083;DHT22;5080;48.528;8.078;2023-02-18T13:24:54;15.90;99.90
10083;DHT22;5080;48.528;8.078;2023-02-18T13:27:27;15.90;99.90
10083;DHT22;5080;48.528;8.078;2023-02-18T13:30:08;15.90;99.90
10083;DHT22;5080;48.528;8.078;2023-02-18T13:32:40;15.90;99.90
10083;DHT22;5080;48.528;8.078;2023-02-18T13:35:18;15.90;99.90
10083;DHT22;5080;48.528;8.078;2023-02-18T13:38:00;15.90;99.90
10083;DHT22;5080;48.528;8.078;2023-02-18T13:40:29;15.90;99.90
10083;DHT22;5080;48.528;8.078;2023-02-18T13:43:16;15.90;99.90
10083;DHT22;5080;48.528;8.078;2023-02-18T13:46:02;15.90;99.90
10083;DHT22;5080;48.528;8.078;2023-02-18T13:48:32;15.90;99.90
10083;DHT22;5080;48.528;8.078;2023-02-18T13:51:02;15.90;99.90
10083;DHT22;5080;48.528;8.078;2023-02-18T13:53:31;16.00;99.90
10083;DHT22;5080;48.528;8.078;2023-02-18T13:56:04;15.90;99.90
10083;DHT22;5080;48.528;8.078;2023-02-18T13:58:37;15.90;99.90
10083;DHT22;5080;48.528;8.078;2023-02-18T14:01:20;16.10;99.90
10083;DHT22;5080;48.528;8.078;2023-02-18T14:03:58;16.00;99.90
10083;DHT22;5080;48.528;8.078;2023-02-18T14:06:27;15.90;99.90
10083;DHT22;5080;48.528;8.078;2023-02-18T14:09:35;15.90;99.90
10083;DHT22;5080;48.528;8.078;2023-02-18T14:12:23;15.90;99.90
10083;DHT22;5080;48.528;8.078;2023-02-18T14:14:51;15.80;99.90
10083;DHT22;5080;48.528;8.078;2023-02-18T14:17:36;15.80;99.90
10083;DHT22;5080;48.528;8.078;2023-02-18T14:20:44;15.70;99.90
10083;DHT22;5080;48.528;8.078;2023-02-18T14:23:43;15.70;99.90
10083;DHT22;5080;48.528;8.078;2023-02-18T14:26:20;15.70;99.90
10083;DHT22;5080;48.528;8.078;2023-02-18T14:28:52;15.70;99.90
10083;DHT22;5080;48.528;8.078;2023-02-18T14:31:27;15.70;99.90
10083;DHT22;5080;48.528;8.078;2023-02-18T14:34:17;15.70;99.90
10083;DHT22;5080;48.528;8.078;2023-02-18T14:36:54;15.60;99.90
10083;DHT22;5080;48.528;8.078;2023-02-18T14:39:36;15.70;99.90
10083;DHT22;5080;48.528;8.078;2023-02-18T14:42:13;15.70;99.90
10083;DHT22;5080;48.528;8.078;2023-02-18T14:47:50;15.60;99.90
10083;DHT22;5080;48.528;8.078;2023-02-18T14:50:21;15.60;99.90
10083;DHT22;5080;48.528;8.078;2023-02-18T14:52:50;15.70;99.90
10083;DHT22;5080;48.528;8.078;2023-02-18T14:55:22;15.70;99.90
10083;DHT22;5080;48.528;8.078;2023-02-18T14:57:52;15.60;99.90
10083;DHT22;5080;48.528;8.078;2023-02-18T15:00:21;15.60;99.90
10083;DHT22;5080;48.528;8.078;2023-02-18T15:02:50;15.60;99.90
10083;DHT22;5080;48.528;8.078;2023-02-18T15:05:19;15.60;99.90
10083;DHT22;5080;48.528;8.078;2023-02-18T15:07:59;15.50;99.90
10083;DHT22;5080;48.528;8.078;2023-02-18T15:10:35;15.30;99.90
10083;DHT22;5080;48.528;8.078;2023-02-18T15:13:06;15.20;99.90
10083;DHT22;5080;48.528;8.078;2023-02-18T15:15:34;15.00;99.90
10083;DHT22;5080;48.528;8.078;2023-02-18T15:18:02;15.00;99.90
10083;DHT22;5080;48.528;8.078;2023-02-18T15:20:32;15.00;99.90
10083;DHT22;5080;48.528;8.078;2023-02-18T15:23:01;15.00;99.90
10083;DHT22;5080;48.528;8.078;2023-02-18T15:25:28;15.00;99.90
10083;DHT22;5080;48.528;8.078;2023-02-18T15:27:55;14.90;99.90
10083;DHT22;5080;48.528;8.078;2023-02-18T15:30:25;14.90;99.90
10083;DHT22;5080;48.528;8.078;2023-02-18T15:32:55;14.80;99.90
10083;DHT22;5080;48.528;8.078;2023-02-18T15:35:25;14.70;99.90
10083;DHT22;5080;48.528;8.078;2023-02-18T15:37:55;14.70;99.90
10083;DHT22;5080;48.528;8.078;2023-02-18T15:40:26;14.70;99.90
10083;DHT22;5080;48.528;8.078;2023-02-18T15:42:57;14.80;99.90
10083;DHT22;5080;48.528;8.078;2023-02-18T15:45:31;14.70;99.90
10083;DHT22;5080;48.528;8.078;2023-02-18T15:47:59;14.70;99.90
10083;DHT22;5080;48.528;8.078;2023-02-18T15:50:29;14.70;99.90
10083;DHT22;5080;48.528;8.078;2023-02-18T15:53:12;14.70;99.90
10083;DHT22;5080;48.528;8.078;2023-02-18T15:55:42;14.70;99.90
10083;DHT22;5080;48.528;8.078;2023-02-18T15:58:13;14.70;99.90
10083;DHT22;5080;48.528;8.078;2023-02-18T16:00:47;14.70;99.90
10083;DHT22;5080;48.528;8.078;2023-02-18T16:03:19;14.60;99.90
10083;DHT22;5080;48.528;8.078;2023-02-18T16:05:46;14.60;99.90
10083;DHT22;5080;48.528;8.078;2023-02-18T16:08:15;14.60;99.90
10083;DHT22;5080;48.528;8.078;2023-02-18T16:10:52;14.60;99.90
10083;DHT22;5080;48.528;8.078;2023-02-18T16:13:19;14.60;99.90
10083;DHT22;5080;48.528;8.078;2023-02-18T16:15:49;14.50;99.90
10083;DHT22;5080;48.528;8.078;2023-02-18T16:18:27;14.50;99.90